Decoded Metar for LFMV (AVIGNON in FRANCE) (IATA:AVN) | Meteo·Mobile Aviation Weather
aviador You're here:

LFMV Decoded Metar

AVIGNON in FRANCE
Report Time2019-07-16 09:30:00
UTC Time2019-07-16 10:02:54
Flight Rules vfr VFR
Wind020° at 05 kt
W.Decomp.*RWY 35: 4.4 kt HW 2.4 kt RCW
Visibility9999 m
Phenomena:N/A
Clouds:N/A
Expected CloudBase > 6,000 ft AGL from Temp-Dew spread
CeilingNone
Temp27°C (ISA +12)
Dew Point12°C (39% RH)
Heat Index26.8°C
AAT25.8°C
QNH1015 hPa
Density Alt1,660 ft
Elevation125 ft
Report Wrong Elevation
Raw Report
LFMV 160930Z AUTO 02005KT 310V090 CAVOK 27/12 Q1015 NOSIG=

Extra information for LFMV:More info

Metar Taf Metar & Taf Last 4 Metars F.Rules Stats Wind Profile Meteogram Temp Stats Airport Information Weather charts Add Link Nearby VenuesMetar ALERT Operation Metar Decoded Social comments